Time;durP1;ratioP1;P1;durP2;ratioP2;P2;SDS_P1;SDS_P2;PMS_P1;PMS_P2;Temp;Humidity;BMP_temperature;BMP_pressure;BME280_temperature;BME280_humidity;BME280_pressure;Samples;Min_cycle;Max_cycle;Signal;HPM_P1;HPM_P2
2023/07/12 00:00:44;;;;;;;2.72;1.10;;;24.50;61.60;;;;;;5114357;28;20221;-58
2023/07/12 00:03:10;;;;;;;1.73;1.50;;;24.50;61.60;;;;;;5114090;28;20529;-58
2023/07/12 00:05:35;;;;;;;1.42;0.90;;;24.50;61.60;;;;;;5113449;28;20624;-58
2023/07/12 00:08:02;;;;;;;1.42;1.33;;;24.50;61.60;;;;;;5113973;28;20165;-59
2023/07/12 00:10:30;;;;;;;1.48;1.10;;;24.50;61.60;;;;;;5114161;28;20169;-58
2023/07/12 00:12:55;;;;;;;1.00;1.00;;;24.40;62.30;;;;;;5113124;28;20226;-58
2023/07/12 00:15:28;;;;;;;1.38;1.25;;;24.50;61.60;;;;;;5114161;28;20527;-58
2023/07/12 00:17:54;;;;;;;1.98;1.25;;;24.40;61.50;;;;;;5113238;28;20234;-58
2023/07/12 00:20:25;;;;;;;1.70;1.13;;;24.50;61.60;;;;;;5116393;27;20208;-58
2023/07/12 00:22:51;;;;;;;1.23;1.00;;;24.40;61.50;;;;;;5134401;27;20251;-58
2023/07/12 00:25:16;;;;;;;1.17;1.10;;;24.40;61.50;;;;;;5134117;27;20255;-58
2023/07/12 00:27:42;;;;;;;1.20;1.10;;;24.40;61.50;;;;;;5133553;27;20225;-58
2023/07/12 00:30:41;;;;;;;1.52;1.17;;;24.40;61.50;;;;;;5134098;27;20180;-58
2023/07/12 00:33:09;;;;;;;4.25;1.83;;;24.40;61.50;;;;;;5115327;27;20184;-58
2023/07/12 00:35:35;;;;;;;1.13;1.02;;;24.50;61.60;;;;;;5116100;27;20175;-58
2023/07/12 00:38:01;;;;;;;1.20;1.00;;;24.40;61.50;;;;;;5115476;28;20224;-58
2023/07/12 00:40:41;;;;;;;1.23;1.13;;;24.40;61.50;;;;;;5133278;27;20215;-59
2023/07/12 00:43:40;;;;;;;1.58;1.20;;;24.40;61.50;;;;;;5133795;27;20195;-59
2023/07/12 00:46:22;;;;;;;1.23;1.08;;;24.40;61.50;;;;;;5100528;27;20181;-58
2023/07/12 00:48:48;;;;;;;2.40;1.20;;;24.40;61.50;;;;;;5115317;27;20184;-58
2023/07/12 00:51:16;;;;;;;1.25;0.93;;;24.40;61.60;;;;;;5133934;27;20276;-58
2023/07/12 00:53:42;;;;;;;1.23;1.10;;;24.40;61.50;;;;;;5133559;27;20176;-58
2023/07/12 00:56:10;;;;;;;2.05;1.23;;;24.40;61.60;;;;;;5133692;27;20259;-58
2023/07/12 00:58:39;;;;;;;1.80;1.33;;;24.40;61.60;;;;;;5115841;28;20504;-59
2023/07/12 01:01:05;;;;;;;2.17;1.10;;;24.50;61.60;;;;;;5114793;28;20319;-59
2023/07/12 01:03:33;;;;;;;1.08;0.98;;;24.40;61.50;;;;;;5134015;28;20259;-59
2023/07/12 01:05:58;;;;;;;1.33;1.20;;;24.40;61.50;;;;;;5115520;28;20691;-59
2023/07/12 01:08:24;;;;;;;1.08;1.08;;;24.40;61.50;;;;;;5114977;28;20180;-58
2023/07/12 01:10:49;;;;;;;1.70;1.17;;;24.30;61.40;;;;;;5133654;28;20208;-55
2023/07/12 01:13:20;;;;;;;1.85;1.00;;;24.40;61.50;;;;;;5133532;28;20191;-58
2023/07/12 01:15:46;;;;;;;1.35;1.25;;;24.30;61.40;;;;;;5133337;28;20200;-58
2023/07/12 01:18:11;;;;;;;1.63;1.48;;;24.30;61.40;;;;;;5115303;28;20221;-58
2023/07/12 01:20:38;;;;;;;1.40;1.08;;;24.30;61.40;;;;;;5133776;28;20228;-58
2023/07/12 01:23:03;;;;;;;1.75;1.10;;;24.30;61.40;;;;;;5132846;28;20536;-58
2023/07/12 01:25:43;;;;;;;1.10;1.00;;;24.30;61.40;;;;;;5133646;28;20187;-58
2023/07/12 01:28:09;;;;;;;1.52;1.00;;;24.30;61.40;;;;;;5133582;27;20183;-58
2023/07/12 01:30:35;;;;;;;1.40;1.15;;;24.30;61.50;;;;;;5136954;27;20168;-58
2023/07/12 01:33:00;;;;;;;1.25;1.00;;;24.30;61.40;;;;;;5137392;27;20199;-58
2023/07/12 01:35:26;;;;;;;1.98;1.10;;;24.30;61.40;;;;;;5137699;27;20172;-58
2023/07/12 01:37:51;;;;;;;1.23;1.08;;;24.30;62.30;;;;;;5137109;27;20571;-58
2023/07/12 01:40:17;;;;;;;1.60;1.30;;;24.30;61.50;;;;;;5137453;27;20235;-58
2023/07/12 01:42:43;;;;;;;1.30;0.93;;;24.30;61.40;;;;;;5137723;27;20168;-58
2023/07/12 01:45:08;;;;;;;1.13;1.02;;;24.30;61.40;;;;;;5136831;27;20176;-59
2023/07/12 01:47:34;;;;;;;1.40;1.10;;;24.30;61.40;;;;;;5137493;27;20176;-58
2023/07/12 01:49:59;;;;;;;1.00;0.98;;;24.30;61.40;;;;;;5136545;27;20695;-58
2023/07/12 01:52:25;;;;;;;1.10;1.00;;;24.30;61.40;;;;;;5137504;27;20560;-57
2023/07/12 01:54:51;;;;;;;1.35;0.90;;;24.30;61.40;;;;;;5137400;27;20172;-58
2023/07/12 01:57:16;;;;;;;1.20;0.75;;;24.30;61.50;;;;;;5136479;27;20176;-58
2023/07/12 01:59:42;;;;;;;1.70;1.20;;;24.30;61.40;;;;;;5137230;27;20168;-58
2023/07/12 02:02:07;;;;;;;2.03;1.10;;;24.30;61.40;;;;;;5136890;27;20219;-58
2023/07/12 02:04:33;;;;;;;1.35;1.00;;;24.30;61.40;;;;;;5136472;27;20172;-57
2023/07/12 02:06:59;;;;;;;1.27;1.10;;;24.30;61.40;;;;;;5136858;27;20179;-58
2023/07/12 02:09:27;;;;;;;1.10;1.00;;;24.30;61.50;;;;;;5137006;27;20214;-58
2023/07/12 02:11:52;;;;;;;1.15;1.05;;;24.30;61.40;;;;;;5136489;27;20177;-58
2023/07/12 02:14:18;;;;;;;1.10;0.85;;;24.30;61.40;;;;;;5136922;27;20187;-58
2023/07/12 02:16:43;;;;;;;1.08;0.98;;;24.30;61.40;;;;;;5137143;27;20546;-58
2023/07/12 02:19:09;;;;;;;1.10;1.00;;;24.20;61.40;;;;;;5135985;27;20161;-58
2023/07/12 02:21:34;;;;;;;1.73;1.02;;;24.30;61.50;;;;;;5136729;27;20212;-58
2023/07/12 02:24:00;;;;;;;1.38;1.00;;;24.30;61.40;;;;;;5136417;27;20168;-58
2023/07/12 02:26:26;;;;;;;1.35;1.13;;;24.30;61.50;;;;;;5136167;27;20208;-58
2023/07/12 02:28:51;;;;;;;1.30;0.95;;;24.20;61.40;;;;;;5136924;27;20207;-58
2023/07/12 02:31:22;;;;;;;1.00;0.90;;;24.30;61.50;;;;;;5136512;27;20175;-58
2023/07/12 02:33:48;;;;;;;2.22;1.10;;;24.20;61.40;;;;;;5135893;27;20172;-58
2023/07/12 02:36:14;;;;;;;1.45;0.95;;;24.20;61.40;;;;;;5136251;27;20176;-58
2023/07/12 02:38:40;;;;;;;1.30;0.98;;;24.20;61.40;;;;;;5136284;27;20630;-59
2023/07/12 02:41:07;;;;;;;2.22;1.13;;;24.30;61.40;;;;;;5134615;27;20565;-58
2023/07/12 02:43:32;;;;;;;1.10;0.93;;;24.20;61.40;;;;;;5136548;27;20169;-58
2023/07/12 02:45:58;;;;;;;1.38;0.77;;;24.20;61.40;;;;;;5136303;27;20176;-59
2023/07/12 02:48:23;;;;;;;1.45;1.20;;;24.20;61.40;;;;;;5135823;27;20253;-58
2023/07/12 02:50:49;;;;;;;1.35;1.00;;;24.30;61.50;;;;;;5136338;27;20168;-58
2023/07/12 02:53:16;;;;;;;1.20;0.95;;;24.20;61.40;;;;;;5135620;27;20635;-58
2023/07/12 02:55:41;;;;;;;1.17;1.00;;;24.20;61.40;;;;;;5136164;27;20180;-58
2023/07/12 02:58:07;;;;;;;1.98;1.20;;;24.20;61.40;;;;;;5136002;27;20530;-58
2023/07/12 03:00:32;;;;;;;1.02;0.93;;;24.20;61.40;;;;;;5135268;27;20667;-58
2023/07/12 03:02:58;;;;;;;2.25;1.25;;;24.20;61.40;;;;;;5135818;27;20544;-58
2023/07/12 03:05:23;;;;;;;1.98;1.17;;;24.20;61.40;;;;;;5136009;27;20665;-59
2023/07/12 03:07:49;;;;;;;1.35;1.05;;;24.20;61.40;;;;;;5135207;27;20639;-58
2023/07/12 03:10:15;;;;;;;1.25;1.15;;;24.20;61.40;;;;;;5117203;27;20285;-59
2023/07/12 03:12:40;;;;;;;1.05;1.02;;;24.20;61.40;;;;;;5135875;27;20172;-58
2023/07/12 03:15:06;;;;;;;1.20;1.10;;;24.20;61.40;;;;;;5134859;27;20646;-58
2023/07/12 03:17:32;;;;;;;1.20;1.10;;;24.20;61.40;;;;;;5136143;27;20169;-58
2023/07/12 03:19:57;;;;;;;1.40;1.10;;;24.20;61.40;;;;;;5135304;27;20172;-58
2023/07/12 03:22:23;;;;;;;1.38;1.05;;;24.20;61.40;;;;;;5134951;27;20555;-58
2023/07/12 03:24:48;;;;;;;1.25;1.05;;;24.20;61.40;;;;;;5135740;27;20221;-58
2023/07/12 03:27:14;;;;;;;2.60;1.25;;;24.20;61.30;;;;;;5135452;27;20184;-58
2023/07/12 03:29:40;;;;;;;1.80;1.08;;;24.20;61.30;;;;;;5134813;27;20169;-58
2023/07/12 03:32:05;;;;;;;0.90;0.88;;;24.20;62.10;;;;;;5135224;27;20170;-58
2023/07/12 03:34:31;;;;;;;1.42;0.90;;;24.20;61.30;;;;;;5135372;27;20169;-59
2023/07/12 03:36:57;;;;;;;2.13;1.02;;;24.20;61.30;;;;;;5134215;27;20165;-58
2023/07/12 03:39:23;;;;;;;3.28;1.15;;;24.20;61.30;;;;;;5135163;27;20236;-58
2023/07/12 03:41:48;;;;;;;1.63;1.30;;;24.20;61.20;;;;;;5135287;27;20674;-58
2023/07/12 03:44:14;;;;;;;1.23;1.02;;;24.20;61.30;;;;;;5134184;27;20176;-58
2023/07/12 03:46:39;;;;;;;1.38;1.27;;;24.10;61.20;;;;;;5135024;27;20176;-59
2023/07/12 03:49:05;;;;;;;3.15;1.35;;;24.20;61.20;;;;;;5134827;27;20179;-57
2023/07/12 03:51:30;;;;;;;1.60;1.20;;;24.10;61.20;;;;;;5134225;27;20268;-58
2023/07/12 03:53:56;;;;;;;1.17;1.08;;;24.20;61.30;;;;;;5134598;27;20172;-58
2023/07/12 03:56:21;;;;;;;1.40;1.00;;;24.10;62.10;;;;;;5135176;27;20263;-58
2023/07/12 03:58:47;;;;;;;1.30;0.73;;;24.10;61.20;;;;;;5134261;27;20201;-58
2023/07/12 04:01:13;;;;;;;0.85;0.82;;;24.10;61.20;;;;;;5134550;27;20218;-58
2023/07/12 04:03:39;;;;;;;2.45;1.00;;;24.10;61.10;;;;;;5134217;27;20183;-58
2023/07/12 04:06:05;;;;;;;1.40;1.13;;;24.10;61.20;;;;;;5134341;27;20531;-58
2023/07/12 04:08:31;;;;;;;1.35;0.70;;;24.10;62.10;;;;;;5134848;27;20165;-58
2023/07/12 04:10:57;;;;;;;1.67;1.00;;;24.10;61.10;;;;;;5133531;27;20909;-58
2023/07/12 04:13:23;;;;;;;1.35;1.10;;;24.10;61.10;;;;;;5134849;27;20172;-58
2023/07/12 04:15:52;;;;;;;1.45;1.15;;;24.10;61.20;;;;;;5134790;27;20587;-58
2023/07/12 04:18:17;;;;;;;1.52;1.10;;;24.10;61.20;;;;;;5133635;27;20168;-58
2023/07/12 04:20:43;;;;;;;1.42;1.30;;;24.10;62.00;;;;;;5134370;27;20260;-58
2023/07/12 04:23:09;;;;;;;1.15;1.00;;;24.10;61.20;;;;;;5134031;27;20231;-58
2023/07/12 04:25:35;;;;;;;0.95;0.95;;;24.10;61.10;;;;;;5133844;27;20179;-58
2023/07/12 04:28:00;;;;;;;1.75;1.02;;;24.10;61.20;;;;;;5134252;27;20509;-58
2023/07/12 04:30:26;;;;;;;1.55;1.10;;;24.10;61.10;;;;;;5134485;27;20176;-58
2023/07/12 04:32:52;;;;;;;2.17;1.00;;;24.10;61.10;;;;;;5133552;27;20180;-58
2023/07/12 04:35:18;;;;;;;1.10;1.00;;;24.10;61.10;;;;;;5134082;27;20704;-58
2023/07/12 04:37:45;;;;;;;1.83;1.20;;;24.10;61.10;;;;;;5134227;27;20267;-59
2023/07/12 04:40:11;;;;;;;1.38;1.27;;;24.10;61.00;;;;;;5133336;27;20215;-58
2023/07/12 04:42:37;;;;;;;1.23;1.08;;;24.10;61.00;;;;;;5134280;27;20172;-58
2023/07/12 04:45:03;;;;;;;1.40;0.93;;;24.10;61.10;;;;;;5133781;27;20187;-59
2023/07/12 04:47:29;;;;;;;0.95;0.90;;;24.00;61.00;;;;;;5133240;27;20176;-58
2023/07/12 04:49:54;;;;;;;0.85;0.70;;;24.10;61.00;;;;;;5133924;27;20183;-58
2023/07/12 04:52:20;;;;;;;1.80;0.95;;;24.00;61.00;;;;;;5133867;27;20623;-58
2023/07/12 04:54:45;;;;;;;1.58;1.17;;;24.10;61.00;;;;;;5133411;27;20527;-58
2023/07/12 04:57:11;;;;;;;1.48;0.90;;;24.10;61.00;;;;;;5133830;27;20623;-58
2023/07/12 04:59:36;;;;;;;1.20;1.02;;;24.10;61.00;;;;;;5133884;27;20263;-59
2023/07/12 05:02:02;;;;;;;2.65;1.33;;;24.10;61.00;;;;;;5132840;28;20208;-58
2023/07/12 05:04:28;;;;;;;2.92;1.20;;;24.00;60.90;;;;;;5133493;27;20828;-59
2023/07/12 05:06:53;;;;;;;1.73;1.02;;;24.00;60.90;;;;;;5133648;28;20217;-58
2023/07/12 05:09:20;;;;;;;1.27;1.17;;;24.00;61.80;;;;;;5133449;28;20172;-59
2023/07/12 05:11:46;;;;;;;1.08;1.00;;;24.00;60.90;;;;;;5133773;28;20520;-59
2023/07/12 05:14:12;;;;;;;1.20;1.10;;;24.00;61.80;;;;;;5132698;28;20179;-59
2023/07/12 05:16:38;;;;;;;1.98;1.13;;;24.00;60.90;;;;;;5133688;28;20169;-59
2023/07/12 05:19:03;;;;;;;1.42;1.05;;;24.00;60.90;;;;;;5133365;28;20829;-58
2023/07/12 05:21:29;;;;;;;2.97;1.60;;;24.00;60.80;;;;;;5133151;28;20235;-59
2023/07/12 05:23:54;;;;;;;1.58;1.10;;;24.10;60.90;;;;;;5133715;28;20176;-58
2023/07/12 05:26:20;;;;;;;2.30;1.20;;;24.00;60.90;;;;;;5133585;28;20180;-58
2023/07/12 05:28:45;;;;;;;1.75;1.40;;;24.00;60.90;;;;;;5132935;28;20627;-58
2023/07/12 05:31:12;;;;;;;1.63;1.33;;;24.10;60.90;;;;;;5133367;28;20183;-58
2023/07/12 05:33:43;;;;;;;1.45;1.27;;;24.10;60.90;;;;;;5133459;28;20627;-59
2023/07/12 05:36:09;;;;;;;1.95;1.40;;;24.10;60.90;;;;;;5132896;28;20211;-58
2023/07/12 05:38:35;;;;;;;2.13;1.27;;;24.10;60.80;;;;;;5133529;28;20252;-58
2023/07/12 05:41:00;;;;;;;2.22;1.60;;;24.00;61.60;;;;;;5133360;28;20617;-59
2023/07/12 05:43:26;;;;;;;1.90;1.40;;;24.10;60.80;;;;;;5132752;28;20175;-59
2023/07/12 05:45:52;;;;;;;2.30;1.70;;;24.10;60.80;;;;;;5133582;28;20177;-58
2023/07/12 05:48:18;;;;;;;1.92;1.60;;;24.10;60.80;;;;;;5133328;28;20528;-58
2023/07/12 05:50:43;;;;;;;1.45;1.35;;;24.10;60.80;;;;;;5132958;28;20180;-59
2023/07/12 05:53:09;;;;;;;1.70;1.52;;;24.10;61.70;;;;;;5133370;28;20619;-58
2023/07/12 05:55:34;;;;;;;3.72;1.70;;;24.10;60.80;;;;;;5133395;28;20168;-58
2023/07/12 05:58:00;;;;;;;2.08;1.70;;;24.00;60.70;;;;;;5132443;28;20169;-58
2023/07/12 06:00:26;;;;;;;3.88;1.83;;;24.00;60.70;;;;;;5133359;28;20201;-59
2023/07/12 06:02:51;;;;;;;2.83;2.13;;;24.10;60.70;;;;;;5133202;28;20171;-59
2023/07/12 06:05:18;;;;;;;1.90;1.80;;;24.10;60.70;;;;;;5132356;28;20169;-59
2023/07/12 06:07:44;;;;;;;3.13;1.90;;;24.10;60.60;;;;;;5133329;28;20176;-59
2023/07/12 06:10:10;;;;;;;1.55;1.45;;;24.10;60.60;;;;;;5132799;28;20177;-59
2023/07/12 06:12:35;;;;;;;2.17;1.98;;;24.10;60.60;;;;;;5132572;28;20172;-59
2023/07/12 06:15:01;;;;;;;2.17;1.90;;;24.00;60.60;;;;;;5132833;27;20622;-60
2023/07/12 06:17:26;;;;;;;2.05;1.77;;;24.00;60.60;;;;;;5135533;27;20172;-59
2023/07/12 06:19:52;;;;;;;1.77;1.52;;;24.00;60.70;;;;;;5137022;27;20169;-59
2023/07/12 06:22:17;;;;;;;1.80;1.67;;;24.00;60.70;;;;;;5136567;27;20208;-58
2023/07/12 06:24:43;;;;;;;3.65;1.75;;;24.00;60.60;;;;;;5135859;27;20165;-58
2023/07/12 06:27:08;;;;;;;2.97;2.35;;;24.00;60.60;;;;;;5136259;27;20225;-59
2023/07/12 06:29:34;;;;;;;1.88;1.77;;;24.00;60.60;;;;;;5136558;27;20164;-59
2023/07/12 06:32:00;;;;;;;2.10;1.90;;;24.10;60.60;;;;;;5135534;27;20590;-59
2023/07/12 06:34:25;;;;;;;2.90;1.83;;;24.10;60.60;;;;;;5136602;27;20195;-60
2023/07/12 06:36:51;;;;;;;1.73;1.63;;;24.10;60.60;;;;;;5136522;27;20169;-60
2023/07/12 06:39:17;;;;;;;3.30;2.00;;;24.10;60.40;;;;;;5135419;27;20232;-59
2023/07/12 06:41:42;;;;;;;2.40;1.80;;;24.10;60.40;;;;;;5136137;27;20287;-59
2023/07/12 06:44:08;;;;;;;3.15;1.83;;;24.10;60.40;;;;;;5136052;27;20255;-58
2023/07/12 06:46:33;;;;;;;2.20;2.00;;;24.10;60.50;;;;;;5135567;27;20272;-58
2023/07/12 06:48:59;;;;;;;3.10;1.98;;;24.10;60.50;;;;;;5135987;27;20187;-58
2023/07/12 06:51:24;;;;;;;3.10;2.00;;;24.10;60.40;;;;;;5136151;27;20172;-58
2023/07/12 06:53:50;;;;;;;2.00;1.90;;;24.10;61.30;;;;;;5135423;27;20212;-58
2023/07/12 06:56:16;;;;;;;2.55;2.00;;;24.00;60.40;;;;;;5135696;27;20222;-57
2023/07/12 06:58:41;;;;;;;3.03;2.42;;;24.10;60.40;;;;;;5135993;27;20161;-59
2023/07/12 07:01:08;;;;;;;3.70;2.17;;;24.10;60.40;;;;;;5134698;27;20200;-58
2023/07/12 07:03:33;;;;;;;2.42;2.15;;;24.10;60.40;;;;;;5136289;27;20196;-58
2023/07/12 07:05:59;;;;;;;2.97;2.10;;;24.10;60.40;;;;;;5135852;27;20658;-59
2023/07/12 07:08:25;;;;;;;2.72;2.00;;;24.10;60.40;;;;;;5135228;27;20649;-58
2023/07/12 07:10:51;;;;;;;2.45;1.80;;;24.00;60.40;;;;;;5135705;27;20537;-58
2023/07/12 07:13:17;;;;;;;3.42;2.22;;;24.00;60.50;;;;;;5135446;27;20535;-58
2023/07/12 07:15:45;;;;;;;2.30;1.83;;;24.00;60.40;;;;;;5134870;27;20179;-59
2023/07/12 07:18:10;;;;;;;2.60;2.03;;;24.00;60.40;;;;;;5135580;27;20200;-59
2023/07/12 07:20:36;;;;;;;3.83;2.22;;;24.00;60.40;;;;;;5134691;27;20231;-58
2023/07/12 07:23:01;;;;;;;2.35;2.10;;;24.00;60.30;;;;;;5116814;27;20180;-59
2023/07/12 07:25:28;;;;;;;3.65;2.10;;;24.00;60.40;;;;;;5135548;27;20169;-58
2023/07/12 07:27:53;;;;;;;2.00;1.80;;;24.10;60.30;;;;;;5134266;27;20203;-56
2023/07/12 07:30:19;;;;;;;2.67;1.63;;;24.00;60.40;;;;;;5135331;27;20230;-58
2023/07/12 07:32:45;;;;;;;2.53;2.00;;;24.00;60.30;;;;;;5135633;27;20171;-58
2023/07/12 07:35:11;;;;;;;3.90;2.28;;;24.00;60.40;;;;;;5134142;27;20172;-59
2023/07/12 07:37:37;;;;;;;2.33;2.10;;;24.00;60.30;;;;;;5135217;27;20172;-58
2023/07/12 07:40:03;;;;;;;3.85;2.33;;;24.10;60.30;;;;;;5134744;27;20185;-59
2023/07/12 07:42:29;;;;;;;2.83;2.20;;;24.00;60.20;;;;;;5134465;27;20182;-59
2023/07/12 07:44:54;;;;;;;3.35;2.00;;;24.00;60.20;;;;;;5134992;27;20260;-59
2023/07/12 07:47:20;;;;;;;4.63;2.17;;;24.10;60.30;;;;;;5134825;27;20654;-59
2023/07/12 07:49:45;;;;;;;3.55;2.03;;;24.00;60.20;;;;;;5134433;27;20539;-59
2023/07/12 07:52:11;;;;;;;2.65;2.03;;;24.00;60.30;;;;;;5134720;27;20523;-58
2023/07/12 07:54:39;;;;;;;3.67;1.88;;;24.00;61.10;;;;;;5134949;27;20221;-58
2023/07/12 07:57:05;;;;;;;2.60;2.10;;;24.00;60.30;;;;;;5133936;27;20169;-58
2023/07/12 07:59:31;;;;;;;2.58;2.38;;;24.00;60.20;;;;;;5134696;27;20546;-59
2023/07/12 08:01:57;;;;;;;2.45;2.22;;;24.00;60.20;;;;;;5134452;27;20208;-59
2023/07/12 08:04:23;;;;;;;2.97;2.13;;;24.00;60.30;;;;;;5133616;27;20643;-59
2023/07/12 08:06:50;;;;;;;3.00;2.15;;;24.00;60.40;;;;;;5134803;27;20264;-59
2023/07/12 08:09:15;;;;;;;3.20;2.00;;;24.00;60.30;;;;;;5134300;27;20177;-59
2023/07/12 08:11:42;;;;;;;3.28;2.28;;;24.00;60.20;;;;;;5133806;27;20180;-58
2023/07/12 08:14:07;;;;;;;2.83;1.98;;;24.00;60.20;;;;;;5134493;27;20172;-58
2023/07/12 08:16:35;;;;;;;4.10;2.70;;;24.00;60.20;;;;;;5134409;27;20252;-58
2023/07/12 08:19:04;;;;;;;2.50;2.30;;;24.00;60.10;;;;;;5133611;27;20172;-59
2023/07/12 08:21:31;;;;;;;3.10;1.88;;;24.10;60.10;;;;;;5134451;27;20298;-58
2023/07/12 08:23:56;;;;;;;3.45;2.05;;;24.00;60.20;;;;;;5133458;27;20240;-58
2023/07/12 08:26:22;;;;;;;3.22;2.40;;;24.10;60.20;;;;;;5134282;27;20164;-58
2023/07/12 08:28:47;;;;;;;3.22;2.60;;;24.00;60.10;;;;;;5134513;27;20177;-58
2023/07/12 08:31:13;;;;;;;2.85;2.30;;;24.00;60.10;;;;;;5133113;27;20179;-58
2023/07/12 08:33:41;;;;;;;3.33;2.10;;;24.00;60.20;;;;;;5134243;27;20646;-58
2023/07/12 08:36:07;;;;;;;2.97;2.00;;;24.00;60.10;;;;;;5133952;27;20172;-58
2023/07/12 08:38:32;;;;;;;4.30;2.50;;;24.10;60.10;;;;;;5132581;27;20747;-58
2023/07/12 08:40:58;;;;;;;3.40;2.33;;;24.00;60.10;;;;;;5133757;27;20625;-58
2023/07/12 08:43:29;;;;;;;2.80;2.33;;;24.00;60.90;;;;;;5115655;27;20161;-59
2023/07/12 08:45:56;;;;;;;2.33;2.00;;;24.00;60.10;;;;;;5098643;27;20325;-59
2023/07/12 08:48:22;;;;;;;3.72;2.53;;;24.00;60.90;;;;;;5099262;27;20198;-59
2023/07/12 08:50:48;;;;;;;2.45;2.08;;;24.10;60.00;;;;;;5133986;27;20245;-58
2023/07/12 08:53:22;;;;;;;3.47;2.20;;;24.10;59.90;;;;;;5133014;27;20169;-57
2023/07/12 08:55:49;;;;;;;3.13;2.20;;;24.10;59.90;;;;;;5099913;28;20225;-58
2023/07/12 08:58:31;;;;;;;2.72;1.95;;;24.10;59.90;;;;;;5133815;27;20184;-58
2023/07/12 09:01:08;;;;;;;4.50;2.20;;;24.10;59.90;;;;;;5097919;28;20206;-59
2023/07/12 09:03:33;;;;;;;4.20;2.30;;;24.10;59.80;;;;;;5099456;28;20188;-59
2023/07/12 09:05:59;;;;;;;5.65;2.60;;;24.10;59.90;;;;;;5133453;28;20256;-59
2023/07/12 09:08:35;;;;;;;2.35;2.15;;;24.10;59.90;;;;;;5133107;28;20177;-58
2023/07/12 09:11:00;;;;;;;2.40;2.20;;;24.20;59.90;;;;;;5115414;28;20199;-59
2023/07/12 09:13:37;;;;;;;2.72;2.00;;;24.20;59.90;;;;;;5133388;28;20200;-58
2023/07/12 09:16:03;;;;;;;3.50;2.30;;;24.20;59.80;;;;;;5133549;28;20172;-59
2023/07/12 09:18:37;;;;;;;2.92;2.05;;;24.20;59.80;;;;;;5133662;28;20172;-58
2023/07/12 09:21:14;;;;;;;3.42;2.05;;;24.20;59.80;;;;;;5132819;28;20234;-58
2023/07/12 09:23:40;;;;;;;2.15;1.95;;;24.20;59.80;;;;;;5133594;28;20320;-58
2023/07/12 09:26:30;;;;;;;2.45;2.25;;;24.20;59.70;;;;;;5133419;28;20180;-57
2023/07/12 09:29:07;;;;;;;2.35;2.15;;;24.20;59.70;;;;;;5131939;28;20337;-58
2023/07/12 09:31:34;;;;;;;2.63;2.17;;;24.20;59.70;;;;;;5133720;28;20179;-58
2023/07/12 09:34:05;;;;;;;3.13;2.28;;;24.20;59.70;;;;;;5133346;28;20173;-58
2023/07/12 09:36:35;;;;;;;3.00;2.10;;;24.30;60.40;;;;;;5132902;28;20177;-58
2023/07/12 09:39:02;;;;;;;2.78;2.28;;;24.30;59.70;;;;;;5115533;28;20216;-59
2023/07/12 09:41:28;;;;;;;3.13;2.05;;;24.30;59.70;;;;;;5114715;28;20216;-58
2023/07/12 09:43:54;;;;;;;3.30;2.13;;;24.20;59.70;;;;;;5133706;28;20187;-58
2023/07/12 09:46:41;;;;;;;2.30;2.10;;;24.30;59.70;;;;;;5114950;28;20584;-59
2023/07/12 09:49:11;;;;;;;2.65;2.20;;;24.30;59.70;;;;;;5114096;28;20180;-59
2023/07/12 09:52:19;;;;;;;3.53;2.00;;;24.30;59.70;;;;;;5137290;27;20218;-59
2023/07/12 09:54:50;;;;;;;2.47;2.10;;;24.30;59.60;;;;;;5037218;28;20271;-58
2023/07/12 09:57:17;;;;;;;3.15;2.10;;;24.30;59.60;;;;;;5052956;28;20547;-58
2023/07/12 09:59:53;;;;;;;2.10;1.90;;;24.30;59.60;;;;;;5098962;27;20181;-59
2023/07/12 10:02:28;;;;;;;2.08;1.98;;;24.30;59.60;;;;;;5118828;27;20264;-59
2023/07/12 10:05:00;;;;;;;4.05;2.20;;;24.30;59.60;;;;;;5137140;27;20529;-58
2023/07/12 10:07:37;;;;;;;3.17;2.50;;;24.30;59.50;;;;;;5101985;27;20172;-59
2023/07/12 10:10:04;;;;;;;2.15;1.95;;;24.30;59.60;;;;;;5117789;27;20176;-58
2023/07/12 10:12:40;;;;;;;2.75;2.38;;;24.30;59.60;;;;;;5136923;27;20540;-58
2023/07/12 10:15:08;;;;;;;2.08;1.92;;;24.30;59.60;;;;;;5102167;27;20638;-58
2023/07/12 10:17:39;;;;;;;3.10;2.10;;;24.30;59.50;;;;;;5100904;27;20670;-58
2023/07/12 10:20:06;;;;;;;4.28;2.20;;;24.30;59.60;;;;;;5118454;27;20194;-58
2023/07/12 10:22:35;;;;;;;3.22;2.40;;;24.40;59.50;;;;;;5136634;27;20635;-58
2023/07/12 10:25:04;;;;;;;2.17;1.98;;;24.40;59.40;;;;;;5117442;27;20184;-58
2023/07/12 10:27:32;;;;;;;2.15;1.95;;;24.40;59.40;;;;;;5119031;27;20200;-57
2023/07/12 10:30:04;;;;;;;2.72;1.80;;;24.40;59.30;;;;;;5118192;27;20242;-59
2023/07/12 10:32:41;;;;;;;3.33;2.25;;;24.50;59.30;;;;;;5118409;27;20264;-58
2023/07/12 10:35:52;;;;;;;2.38;1.92;;;24.40;59.30;;;;;;5117992;27;20176;-58
2023/07/12 10:38:18;;;;;;;2.10;1.90;;;24.40;59.40;;;;;;5103341;27;20227;-58
2023/07/12 10:40:55;;;;;;;3.30;1.98;;;24.40;59.50;;;;;;5118184;27;20204;-58
2023/07/12 10:43:33;;;;;;;2.72;1.80;;;24.40;59.40;;;;;;5136291;27;20224;-58
2023/07/12 10:46:24;;;;;;;3.03;1.92;;;24.40;59.30;;;;;;5116992;27;20201;-58
2023/07/12 10:48:51;;;;;;;4.07;2.50;;;24.40;59.40;;;;;;5113484;27;20207;-59
2023/07/12 10:51:35;;;;;;;2.67;2.22;;;24.40;59.40;;;;;;5117972;27;20225;-58
2023/07/12 10:54:01;;;;;;;4.00;2.30;;;24.30;59.50;;;;;;5136008;27;20200;-58
2023/07/12 10:56:33;;;;;;;3.03;1.73;;;24.30;59.50;;;;;;5136243;27;20206;-57
2023/07/12 10:59:32;;;;;;;2.38;1.98;;;24.30;59.60;;;;;;5135289;27;20168;-59
2023/07/12 11:02:03;;;;;;;3.63;2.33;;;24.30;59.60;;;;;;5134892;27;20204;-59
2023/07/12 11:04:36;;;;;;;1.90;1.80;;;24.30;59.60;;;;;;5135954;27;20190;-58
2023/07/12 11:07:03;;;;;;;1.92;1.73;;;24.30;59.60;;;;;;5134798;27;20643;-59
2023/07/12 11:10:03;;;;;;;2.42;2.00;;;24.30;59.60;;;;;;5136066;27;20173;-58
2023/07/12 11:12:31;;;;;;;2.45;1.83;;;24.30;59.60;;;;;;5120265;27;20631;-58
2023/07/12 11:15:12;;;;;;;2.05;1.75;;;24.30;59.60;;;;;;5134739;27;20179;-59
2023/07/12 11:17:48;;;;;;;2.38;2.00;;;24.30;59.60;;;;;;5135719;27;20624;-59
2023/07/12 11:20:24;;;;;;;2.40;2.20;;;24.30;59.60;;;;;;5134697;27;20233;-58
2023/07/12 11:22:55;;;;;;;2.75;2.13;;;24.30;59.60;;;;;;5135706;27;20180;-59
2023/07/12 11:25:23;;;;;;;2.50;2.03;;;24.30;59.60;;;;;;5135603;27;20179;-58
2023/07/12 11:27:57;;;;;;;1.98;1.85;;;24.30;59.60;;;;;;5116515;27;20180;-58
2023/07/12 11:30:36;;;;;;;3.13;1.92;;;24.30;59.50;;;;;;5135456;27;20176;-57
2023/07/12 11:33:03;;;;;;;2.38;1.85;;;24.40;59.50;;;;;;5135289;27;20176;-57
2023/07/12 11:35:53;;;;;;;2.15;1.63;;;24.40;59.50;;;;;;5134560;27;20195;-58
2023/07/12 11:38:25;;;;;;;2.28;2.05;;;24.40;59.50;;;;;;5116422;27;20595;-58
2023/07/12 11:40:54;;;;;;;2.85;1.95;;;24.40;59.50;;;;;;5116157;27;20216;-59
2023/07/12 11:43:22;;;;;;;2.30;2.13;;;24.40;59.50;;;;;;5135075;27;20165;-59
2023/07/12 11:45:49;;;;;;;2.60;2.00;;;24.40;59.50;;;;;;5135079;27;20210;-58
2023/07/12 11:48:14;;;;;;;3.13;2.28;;;24.40;59.40;;;;;;5115780;27;20176;-58
2023/07/12 11:50:40;;;;;;;2.97;2.15;;;24.40;59.40;;;;;;5134971;27;20541;-58
2023/07/12 11:53:06;;;;;;;2.25;2.03;;;24.40;59.40;;;;;;5116330;27;20203;-58
2023/07/12 11:55:33;;;;;;;2.33;1.73;;;24.40;59.40;;;;;;5134172;27;20199;-58
2023/07/12 11:57:59;;;;;;;2.72;1.83;;;24.50;59.50;;;;;;5116688;27;20184;-59
2023/07/12 12:00:29;;;;;;;3.38;2.13;;;24.50;59.50;;;;;;5134740;27;20177;-59
2023/07/12 12:02:56;;;;;;;2.35;1.73;;;24.50;59.50;;;;;;5134150;27;20221;-59
2023/07/12 12:05:26;;;;;;;2.08;1.83;;;24.50;59.40;;;;;;5134692;27;20865;-58
2023/07/12 12:07:53;;;;;;;2.20;1.67;;;24.50;59.40;;;;;;5116923;27;20502;-58
2023/07/12 12:10:20;;;;;;;2.58;1.83;;;24.50;60.00;;;;;;5133736;27;20206;-58
2023/07/12 12:12:46;;;;;;;2.30;2.10;;;24.50;59.30;;;;;;5116433;27;20172;-59
2023/07/12 12:15:30;;;;;;;2.13;1.60;;;24.50;59.30;;;;;;5099036;27;20169;-58
2023/07/12 12:17:56;;;;;;;1.98;1.77;;;24.50;59.30;;;;;;5133909;27;20539;-58
2023/07/12 12:20:23;;;;;;;3.53;1.80;;;24.50;59.30;;;;;;5134520;27;20194;-59
2023/07/12 12:22:56;;;;;;;2.90;1.85;;;24.50;59.20;;;;;;5134641;27;20177;-58
2023/07/12 12:25:23;;;;;;;2.63;1.90;;;24.50;59.20;;;;;;5116597;27;20173;-59
2023/07/12 12:27:49;;;;;;;2.75;1.48;;;24.50;59.20;;;;;;5134400;27;20263;-58
2023/07/12 12:30:14;;;;;;;2.65;1.92;;;24.50;59.20;;;;;;5133350;27;20245;-58
2023/07/12 12:32:40;;;;;;;2.10;1.95;;;24.50;59.20;;;;;;5134473;27;20172;-58
2023/07/12 12:35:11;;;;;;;3.17;2.00;;;24.50;59.20;;;;;;5134077;27;20645;-58
2023/07/12 12:37:37;;;;;;;2.33;1.80;;;24.50;59.20;;;;;;5098601;27;20190;-59
2023/07/12 12:40:07;;;;;;;2.65;1.98;;;24.50;59.10;;;;;;5133757;27;20619;-58
2023/07/12 12:42:33;;;;;;;2.08;1.88;;;24.50;59.10;;;;;;5133842;27;20212;-59
2023/07/12 12:44:59;;;;;;;1.90;1.75;;;24.50;59.00;;;;;;5132839;27;20241;-58
2023/07/12 12:47:27;;;;;;;2.40;1.90;;;24.50;59.60;;;;;;5134183;27;20180;-58
2023/07/12 12:49:53;;;;;;;3.88;1.92;;;24.50;58.90;;;;;;5115996;27;20176;-58
2023/07/12 12:52:34;;;;;;;3.03;2.03;;;24.50;59.00;;;;;;5132964;27;20189;-57